Airfield :
LOGIN :

Register | Disclaimer

   EN    FR    IT 

 










Legend :    VFR   Marginal VFR   IFR   Intensive IFR   Very Intensive IFR
Visi :
Ceiling :
>= 8 km
>= 3000ft
5 to 8 km
1000 to 3000 ft
1500m to 5 km
500 to 1000 ft
800 to 1500m
200 to 500 ft
< 800m
< 200 ft
Symbols :   Thunderstorms  Fog  Heavy snow  Heavy precipitations  Wind > 20 kt
SIGMETs :     Misc.  Thunderstorms  Icing  Turbulence  Mountain Waves  Volcanic Ashes







- Airport Elevation : 6 ft
- IATA code : PSA


LIRP - Galileo Galilei Pisa

CURRENT METAR :
  • 231745Z 08002KT 8000 MIFG FEW030 11/10 Q1020 NOSIG

EXPIRED METARs :
  • 231715Z 10004KT 9999 FEW025 SCT040 12/11 Q1020 NOSIG
  • 231645Z 10004KT 9999 FEW025 13/10 Q1020 NOSIG
  • 231615Z 11002KT 9999 FEW025 14/11 Q1020 NOSIG
  • 231545Z 10002KT 9999 FEW025 15/11 Q1020 NOSIG
  • 231515Z 12003KT 9999 FEW025 15/11 Q1020 NOSIG

TAF TAF LIRP
Valid from the 23 at 18:00 until the 24 at 18:00 UTC


231700Z 2318/2418 10005KT 9999 FEW030 SCT040
TEMPO 2321/2406 4000 BR
PROB40
TEMPO 2400/2406 1200 MIFG SCT005
No reported NOTAMs for that airfield.



MET'MAP, your aeronautical weather chart ! - Copyright ORBIFLY December 2007 - Disclaimer

ORBIFLY MET'MAP TEAM :

Programming & Development : Alexandra Zaïnal
Concept & Development : Baudouin d'Aumeries
Co-Development & Prog : Marc-Olivier Méhu
Technical & hardware support : Manuel Goepfert

Contact : metmap@orbifly.com




SOURCES & CREDITS :

   NOAA